METAR EVRA 250550Z 15007KT 110V170 CAVOK 15/00 Q1020 NOSIG =

NOTAMs

Controllers Online

PositionControllerOnline
No controllers currently online

Booked ATC Today

* Times are UTC

The time is now

UTC: 

Local: 

Latvia vACC on twitter